createdAt,value
2022-11-15T00:01:27.776Z,3.30
2022-11-15T00:04:12.869Z,3.20
2022-11-15T00:06:59.346Z,3.30
2022-11-15T00:09:46.045Z,3.30
2022-11-15T00:12:31.472Z,3.30
2022-11-15T00:15:17.115Z,3.10
2022-11-15T00:18:02.346Z,3.10
2022-11-15T00:20:47.595Z,3.20
2022-11-15T00:23:33.874Z,3.00
2022-11-15T00:26:19.269Z,3.00
2022-11-15T00:29:04.349Z,3.30
2022-11-15T00:31:49.459Z,3.10
2022-11-15T00:34:34.617Z,3.20
2022-11-15T00:37:19.613Z,3.20
2022-11-15T00:40:05.153Z,3.20
2022-11-15T00:42:53.035Z,2.70
2022-11-15T00:45:38.150Z,2.40
2022-11-15T00:48:23.276Z,2.30
2022-11-15T00:51:08.447Z,2.30
2022-11-15T00:53:53.828Z,2.50
2022-11-15T00:56:39.048Z,2.60
2022-11-15T00:59:24.263Z,2.70
2022-11-15T01:02:09.637Z,2.50
2022-11-15T01:04:54.893Z,2.20
2022-11-15T01:07:40.143Z,2.30
2022-11-15T01:10:26.742Z,2.60
2022-11-15T01:13:11.930Z,3.00
2022-11-15T01:15:57.362Z,2.90
2022-11-15T01:18:42.373Z,2.70
2022-11-15T01:21:27.722Z,2.30
2022-11-15T01:24:13.454Z,2.00
2022-11-15T01:26:58.990Z,1.80
2022-11-15T01:29:44.252Z,1.70
2022-11-15T01:32:29.386Z,1.70
2022-11-15T01:35:14.486Z,1.60
2022-11-15T01:37:59.684Z,1.50
2022-11-15T01:40:44.782Z,1.80
2022-11-15T01:43:32.153Z,1.90
2022-11-15T01:46:21.570Z,2.10
2022-11-15T01:49:14.013Z,1.90
2022-11-15T01:51:59.867Z,1.90
2022-11-15T01:54:45.754Z,2.20
2022-11-15T01:57:31.004Z,2.10
2022-11-15T02:00:16.640Z,2.30
2022-11-15T02:03:02.745Z,2.10
2022-11-15T02:05:48.104Z,1.80
2022-11-15T02:08:33.361Z,2.00
2022-11-15T02:11:18.823Z,2.10
2022-11-15T02:14:04.800Z,2.20
2022-11-15T02:17:02.923Z,2.20
2022-11-15T02:20:20.732Z,2.30
2022-11-15T02:23:16.552Z,1.70
2022-11-15T02:26:01.656Z,1.40
2022-11-15T02:28:52.127Z,1.40
2022-11-15T02:31:57.437Z,1.50
2022-11-15T02:34:55.738Z,1.80
2022-11-15T02:37:43.936Z,2.00
2022-11-15T02:40:36.761Z,2.00
2022-11-15T02:43:56.759Z,1.90
2022-11-15T02:47:04.954Z,2.00
2022-11-15T02:49:54.980Z,2.10
2022-11-15T02:52:40.120Z,2.20
2022-11-15T02:55:28.318Z,1.90
2022-11-15T02:58:34.138Z,1.90
2022-11-15T03:01:38.011Z,1.80
2022-11-15T03:04:29.134Z,1.90
2022-11-15T03:07:17.579Z,1.90
2022-11-15T03:10:21.488Z,1.80
2022-11-15T03:13:14.557Z,1.70
2022-11-15T03:16:05.124Z,1.70
2022-11-15T03:19:05.840Z,1.60
2022-11-15T03:21:51.731Z,1.80
2022-11-15T03:24:38.424Z,1.20
2022-11-15T03:27:26.286Z,1.50
2022-11-15T03:30:12.344Z,1.10
2022-11-15T03:32:58.999Z,1.00
2022-11-15T03:35:45.475Z,1.00
2022-11-15T03:38:32.295Z,1.40
2022-11-15T03:41:23.446Z,1.20
2022-11-15T03:44:08.873Z,0.90
2022-11-15T03:47:05.538Z,0.70
2022-11-15T03:49:52.730Z,0.60
2022-11-15T03:52:38.263Z,1.00
2022-11-15T03:55:23.576Z,0.80
2022-11-15T03:58:08.887Z,0.90
2022-11-15T04:00:54.394Z,0.90
2022-11-15T04:03:39.487Z,0.70
2022-11-15T04:06:24.623Z,0.70
2022-11-15T04:09:09.848Z,1.00
2022-11-15T04:11:54.813Z,1.10
2022-11-15T04:14:59.833Z,0.80
2022-11-15T04:17:46.991Z,0.80
2022-11-15T04:20:51.194Z,1.10
2022-11-15T04:23:55.353Z,1.30
2022-11-15T04:26:40.630Z,1.40
2022-11-15T04:29:38.023Z,1.30
2022-11-15T04:32:23.062Z,0.80
2022-11-15T04:35:08.588Z,0.60
2022-11-15T04:37:54.262Z,0.50
2022-11-15T04:40:39.727Z,0.70
2022-11-15T04:43:24.823Z,0.90
2022-11-15T04:46:09.907Z,1.20
2022-11-15T04:48:58.522Z,1.30
2022-11-15T04:51:44.386Z,1.00
2022-11-15T04:54:29.603Z,1.00
2022-11-15T04:57:15.060Z,1.10
2022-11-15T05:00:00.399Z,1.20
2022-11-15T05:03:04.273Z,1.10
2022-11-15T05:05:49.564Z,1.20
2022-11-15T05:08:34.702Z,1.10
2022-11-15T05:11:19.730Z,1.00
2022-11-15T05:14:04.805Z,0.70
2022-11-15T05:16:49.940Z,0.50
2022-11-15T05:19:34.949Z,0.40
2022-11-15T05:22:20.416Z,0.80
2022-11-15T05:25:06.190Z,1.10
2022-11-15T05:27:51.560Z,0.60
2022-11-15T05:30:36.732Z,0.40
2022-11-15T05:33:21.927Z,0.50
2022-11-15T05:36:18.050Z,0.50
2022-11-15T05:39:04.314Z,0.90
2022-11-15T05:41:52.357Z,0.50
2022-11-15T05:44:38.720Z,0.40
2022-11-15T05:47:26.267Z,0.90
2022-11-15T05:50:15.436Z,1.00
2022-11-15T05:53:05.147Z,1.10
2022-11-15T05:55:51.228Z,1.10
2022-11-15T05:58:37.501Z,0.80
2022-11-15T06:01:23.174Z,0.60
2022-11-15T06:04:08.318Z,0.40
2022-11-15T06:06:53.705Z,0.50
2022-11-15T06:09:39.003Z,0.50
2022-11-15T06:12:24.035Z,0.80
2022-11-15T06:15:09.375Z,1.00
2022-11-15T06:17:58.290Z,1.10
2022-11-15T06:20:46.843Z,1.10
2022-11-15T06:23:33.336Z,1.20
2022-11-15T06:26:18.720Z,1.20
2022-11-15T06:29:05.866Z,1.40
2022-11-15T06:31:51.297Z,1.30
2022-11-15T06:34:36.968Z,1.00
2022-11-15T06:37:22.101Z,0.70
2022-11-15T06:40:08.035Z,0.90
2022-11-15T06:42:58.087Z,1.10
2022-11-15T06:45:43.449Z,1.20
2022-11-15T06:48:29.344Z,0.90
2022-11-15T06:51:14.568Z,0.80
2022-11-15T06:53:59.613Z,0.90
2022-11-15T06:56:44.792Z,1.10
2022-11-15T06:59:29.916Z,1.50
2022-11-15T07:02:15.772Z,1.50
2022-11-15T07:05:00.749Z,1.60
2022-11-15T07:07:52.208Z,1.80
2022-11-15T07:10:37.626Z,1.70
2022-11-15T07:13:25.176Z,1.60
2022-11-15T07:16:11.280Z,1.60
2022-11-15T07:18:56.381Z,1.80
2022-11-15T07:21:41.277Z,1.90
2022-11-15T07:24:26.502Z,2.10
2022-11-15T07:27:13.269Z,2.30
2022-11-15T07:29:58.978Z,2.30
2022-11-15T07:32:44.461Z,2.30
2022-11-15T07:35:29.998Z,2.40
2022-11-15T07:38:15.939Z,2.30
2022-11-15T07:41:02.540Z,2.40
2022-11-15T07:43:47.702Z,2.40
2022-11-15T07:46:32.914Z,2.60
2022-11-15T07:49:18.092Z,2.60
2022-11-15T07:52:03.172Z,2.90
2022-11-15T07:54:48.307Z,2.90
2022-11-15T07:57:33.381Z,3.10
2022-11-15T08:00:18.712Z,3.00
2022-11-15T08:03:05.282Z,3.30
2022-11-15T08:05:52.176Z,3.50
2022-11-15T08:08:37.439Z,3.60
2022-11-15T08:11:22.643Z,3.60
2022-11-15T08:14:07.811Z,3.70
2022-11-15T08:16:53.546Z,3.80
2022-11-15T08:19:38.678Z,3.80
2022-11-15T08:22:23.683Z,3.90
2022-11-15T08:25:08.993Z,4.10
2022-11-15T08:27:55.224Z,4.20
2022-11-15T08:30:43.003Z,4.50
2022-11-15T08:33:28.884Z,4.70
2022-11-15T08:36:15.907Z,4.90
2022-11-15T08:39:01.310Z,4.90
2022-11-15T08:41:46.814Z,4.90
2022-11-15T08:44:31.897Z,5.10
2022-11-15T08:47:17.082Z,5.20
2022-11-15T08:50:02.257Z,5.30
2022-11-15T08:52:49.060Z,5.40
2022-11-15T08:55:36.795Z,5.40
2022-11-15T08:58:22.075Z,5.60
2022-11-15T09:01:07.726Z,5.80
2022-11-15T09:03:53.689Z,5.80
2022-11-15T09:06:42.174Z,5.90
2022-11-15T09:09:28.200Z,5.90
2022-11-15T09:12:13.386Z,6.20
2022-11-15T09:14:59.080Z,6.20
2022-11-15T09:17:44.303Z,6.20
2022-11-15T09:20:29.373Z,6.40
2022-11-15T09:23:14.660Z,6.40
2022-11-15T09:26:04.155Z,6.50
2022-11-15T09:28:49.628Z,6.50
2022-11-15T09:31:34.683Z,6.80
2022-11-15T09:34:20.282Z,7.00
2022-11-15T09:37:05.779Z,7.20
2022-11-15T09:39:51.370Z,7.10
2022-11-15T09:42:39.452Z,7.40
2022-11-15T09:45:24.411Z,7.80
2022-11-15T09:48:12.611Z,7.80
2022-11-15T09:51:14.184Z,7.60
2022-11-15T09:56:31.826Z,8.20
2022-11-15T09:59:17.193Z,8.20
2022-11-15T10:02:01.500Z,8.40
2022-11-15T10:04:28.622Z,8.70
2022-11-15T10:07:15.666Z,11.90
2022-11-15T10:09:48.639Z,13.10
2022-11-15T10:12:16.462Z,11.00
2022-11-15T10:14:43.365Z,10.50
2022-11-15T10:17:13.115Z,10.50
2022-11-15T10:19:42.792Z,10.50
2022-11-15T10:22:09.429Z,10.70
2022-11-15T10:24:38.499Z,10.90
2022-11-15T10:27:10.275Z,10.90
2022-11-15T10:29:36.996Z,10.90
2022-11-15T10:32:03.666Z,10.90
2022-11-15T10:34:36.472Z,10.90
2022-11-15T10:37:03.181Z,10.90
2022-11-15T10:39:30.129Z,10.90
2022-11-15T10:41:57.887Z,11.10
2022-11-15T10:44:26.106Z,11.20
2022-11-15T10:46:55.828Z,11.30
2022-11-15T10:49:22.537Z,11.20
2022-11-15T10:52:00.088Z,11.40
2022-11-15T10:54:34.175Z,11.50
2022-11-15T10:57:02.079Z,11.50
2022-11-15T10:59:34.879Z,11.70
2022-11-15T11:02:24.173Z,11.80
2022-11-15T11:04:51.976Z,11.70
2022-11-15T11:07:22.964Z,11.80
2022-11-15T11:09:57.748Z,11.80
2022-11-15T11:12:32.560Z,11.90
2022-11-15T11:15:00.267Z,11.80
2022-11-15T11:17:39.931Z,11.80
2022-11-15T11:20:28.317Z,11.90
2022-11-15T11:23:16.475Z,11.90
2022-11-15T11:25:46.157Z,12.00
2022-11-15T11:28:23.085Z,12.00
2022-11-15T11:31:16.693Z,12.00
2022-11-15T11:33:48.950Z,11.90
2022-11-15T11:36:22.854Z,11.90
2022-11-15T11:38:49.615Z,12.10
2022-11-15T11:41:16.314Z,12.20
2022-11-15T11:43:52.209Z,12.30
2022-11-15T11:46:18.944Z,12.20
2022-11-15T11:48:52.651Z,12.30
2022-11-15T11:51:21.629Z,12.50
2022-11-15T11:54:08.578Z,12.40
2022-11-15T11:56:37.653Z,12.30
2022-11-15T11:59:11.890Z,12.40
2022-11-15T12:01:42.036Z,12.40
2022-11-15T12:04:25.847Z,12.30
2022-11-15T12:06:58.411Z,12.40
2022-11-15T12:09:25.219Z,12.50
2022-11-15T12:12:09.395Z,12.30
2022-11-15T12:14:51.212Z,12.50
2022-11-15T12:17:21.076Z,12.40
2022-11-15T12:19:47.881Z,12.40
2022-11-15T12:22:19.704Z,12.40
2022-11-15T12:24:49.677Z,12.50
2022-11-15T12:27:23.432Z,12.30
2022-11-15T12:29:55.043Z,12.40
2022-11-15T12:32:24.823Z,12.30
2022-11-15T12:34:52.113Z,12.30
2022-11-15T12:37:41.429Z,12.30
2022-11-15T12:40:19.356Z,12.40
2022-11-15T12:43:03.184Z,12.30
2022-11-15T12:45:34.712Z,12.20
2022-11-15T12:48:16.367Z,12.10
2022-11-15T12:50:55.304Z,12.10
2022-11-15T12:53:28.697Z,12.20
2022-11-15T12:56:13.873Z,12.20
2022-11-15T12:58:51.394Z,12.20
2022-11-15T13:01:30.086Z,12.20
2022-11-15T13:04:22.852Z,12.30
2022-11-15T13:06:49.586Z,12.20
2022-11-15T13:09:34.487Z,12.10
2022-11-15T13:12:05.139Z,12.20
2022-11-15T13:14:38.013Z,12.30
2022-11-15T13:17:17.270Z,12.10
2022-11-15T13:19:44.306Z,12.20
2022-11-15T13:22:29.834Z,12.30
2022-11-15T13:24:57.200Z,12.20
2022-11-15T13:27:24.174Z,12.20
2022-11-15T13:29:50.836Z,12.30
2022-11-15T13:32:17.598Z,12.00
2022-11-15T13:34:51.958Z,12.40
2022-11-15T13:37:22.392Z,12.50
2022-11-15T13:39:49.996Z,12.50
2022-11-15T13:42:19.982Z,12.40
2022-11-15T13:45:04.684Z,12.40
2022-11-15T13:47:32.681Z,12.40
2022-11-15T13:50:00.383Z,12.20
2022-11-15T13:52:33.089Z,12.20
2022-11-15T13:55:05.143Z,12.00
2022-11-15T13:57:38.493Z,12.20
2022-11-15T14:00:06.475Z,12.20
2022-11-15T14:02:39.254Z,12.10
2022-11-15T14:05:18.542Z,12.10
2022-11-15T14:07:54.193Z,12.10
2022-11-15T14:10:28.865Z,11.90
2022-11-15T14:12:55.553Z,12.00
2022-11-15T14:15:33.168Z,12.00
2022-11-15T14:18:00.199Z,11.80
2022-11-15T14:20:32.827Z,11.70
2022-11-15T14:23:00.981Z,11.70
2022-11-15T14:25:31.504Z,11.50
2022-11-15T14:28:12.887Z,11.40
2022-11-15T14:30:40.825Z,11.20
2022-11-15T14:33:26.203Z,11.00
2022-11-15T14:35:53.299Z,10.90
2022-11-15T14:38:20.041Z,10.80
2022-11-15T14:40:46.773Z,10.60
2022-11-15T14:43:13.756Z,10.60
2022-11-15T14:45:40.424Z,10.40
2022-11-15T14:48:07.431Z,10.30
2022-11-15T14:50:34.711Z,10.20
2022-11-15T14:53:01.469Z,10.20
2022-11-15T14:55:29.833Z,10.10
2022-11-15T14:57:56.565Z,10.10
2022-11-15T15:00:23.628Z,10.00
2022-11-15T15:02:52.609Z,9.80
2022-11-15T15:05:20.689Z,9.80
2022-11-15T15:07:47.919Z,9.70
2022-11-15T15:10:38.842Z,9.60
2022-11-15T15:13:02.153Z,9.60
2022-11-15T15:15:36.609Z,9.40
2022-11-15T15:18:03.803Z,9.30
2022-11-15T15:20:30.546Z,9.10
2022-11-15T15:22:57.571Z,9.00
2022-11-15T15:25:32.822Z,8.80
2022-11-15T15:27:59.771Z,8.90
2022-11-15T15:30:27.471Z,8.70
2022-11-15T15:32:54.977Z,8.50
2022-11-15T15:35:22.043Z,8.60
2022-11-15T15:37:49.602Z,8.60
2022-11-15T15:40:17.892Z,8.30
2022-11-15T15:42:44.751Z,8.40
2022-11-15T15:45:12.181Z,8.20
2022-11-15T15:47:39.829Z,8.10
2022-11-15T15:50:15.761Z,8.00
2022-11-15T15:52:42.523Z,7.90
2022-11-15T15:55:09.768Z,7.80
2022-11-15T15:57:36.440Z,7.80
2022-11-15T16:00:04.091Z,7.70
2022-11-15T16:02:40.851Z,7.60
2022-11-15T16:05:08.480Z,7.70
2022-11-15T16:07:35.520Z,7.60
2022-11-15T16:10:03.294Z,7.60
2022-11-15T16:12:34.246Z,7.50
2022-11-15T16:15:01.390Z,7.50
2022-11-15T16:17:34.075Z,7.50
2022-11-15T16:20:01.016Z,7.10
2022-11-15T16:22:29.537Z,7.10
2022-11-15T16:24:56.455Z,7.00
2022-11-15T16:27:23.332Z,7.00
2022-11-15T16:29:50.219Z,7.00
2022-11-15T16:32:17.086Z,7.00
2022-11-15T16:34:48.571Z,6.90
2022-11-15T16:37:25.084Z,6.90
2022-11-15T16:39:52.180Z,6.80
2022-11-15T16:42:20.642Z,6.80
2022-11-15T16:44:47.511Z,6.70
2022-11-15T16:47:20.343Z,6.80
2022-11-15T16:49:47.340Z,6.90
2022-11-15T16:52:17.608Z,6.80
2022-11-15T16:54:47.907Z,6.70
2022-11-15T16:57:14.594Z,6.70
2022-11-15T16:59:41.272Z,6.70
2022-11-15T17:02:15.076Z,6.60
2022-11-15T17:04:41.770Z,6.70
2022-11-15T17:07:08.572Z,6.90
2022-11-15T17:09:35.408Z,6.70
2022-11-15T17:12:02.116Z,6.70
2022-11-15T17:14:29.199Z,6.60
2022-11-15T17:16:55.858Z,6.60
2022-11-15T17:19:22.569Z,6.50
2022-11-15T17:21:49.672Z,6.50
2022-11-15T17:24:17.335Z,6.60
2022-11-15T17:26:44.250Z,6.60
2022-11-15T17:29:10.907Z,6.70
2022-11-15T17:31:38.391Z,6.60
2022-11-15T17:34:06.005Z,6.50
2022-11-15T17:36:32.885Z,6.40
2022-11-15T17:39:00.228Z,6.30
2022-11-15T17:41:27.980Z,6.20
2022-11-15T17:43:56.183Z,6.20
2022-11-15T17:46:22.845Z,6.10
2022-11-15T17:48:49.545Z,6.10
2022-11-15T17:51:17.133Z,6.30
2022-11-15T17:53:45.176Z,6.20
2022-11-15T17:56:13.448Z,6.10
2022-11-15T17:58:40.477Z,6.10
2022-11-15T18:01:08.267Z,6.10
2022-11-15T18:03:38.395Z,6.10
2022-11-15T18:06:06.155Z,6.10
2022-11-15T18:08:36.002Z,5.90
2022-11-15T18:11:03.782Z,5.80
2022-11-15T18:13:30.825Z,5.80
2022-11-15T18:16:02.692Z,5.70
2022-11-15T18:18:30.296Z,6.00
2022-11-15T18:21:26.390Z,6.10
2022-11-15T18:23:54.113Z,6.10
2022-11-15T18:26:26.641Z,6.00
2022-11-15T18:28:54.762Z,5.80
2022-11-15T18:31:28.923Z,5.90
2022-11-15T18:33:56.152Z,5.80
2022-11-15T18:36:25.577Z,5.90
2022-11-15T18:38:55.868Z,5.90
2022-11-15T18:41:25.408Z,6.20
2022-11-15T18:43:52.656Z,6.30
2022-11-15T18:46:20.110Z,5.90
2022-11-15T18:48:47.357Z,5.70
2022-11-15T18:51:15.295Z,5.70
2022-11-15T18:53:42.635Z,5.80
2022-11-15T18:56:13.898Z,5.80
2022-11-15T18:58:41.712Z,5.90
2022-11-15T19:01:10.227Z,6.00
2022-11-15T19:03:38.245Z,5.90
2022-11-15T19:06:07.071Z,6.00
2022-11-15T19:08:35.575Z,6.30
2022-11-15T19:11:13.053Z,6.30
2022-11-15T19:13:40.002Z,5.90
2022-11-15T19:16:07.125Z,5.80
2022-11-15T19:18:34.161Z,5.90
2022-11-15T19:21:03.061Z,5.90
2022-11-15T19:23:32.938Z,5.70
2022-11-15T19:26:00.877Z,5.90
2022-11-15T19:28:28.278Z,5.90
2022-11-15T19:31:02.356Z,6.10
2022-11-15T19:33:29.297Z,6.10
2022-11-15T19:36:06.791Z,6.10
2022-11-15T19:38:34.360Z,6.10
2022-11-15T19:41:01.675Z,5.90
2022-11-15T19:43:28.938Z,5.70
2022-11-15T19:46:01.947Z,5.90
2022-11-15T19:48:29.963Z,5.70
2022-11-15T19:50:59.680Z,5.70
2022-11-15T19:53:29.179Z,5.70
2022-11-15T19:56:07.521Z,5.80
2022-11-15T19:58:34.866Z,5.80
2022-11-15T20:01:13.909Z,5.80
2022-11-15T20:03:40.847Z,5.80
2022-11-15T20:06:08.904Z,5.90
2022-11-15T20:08:36.118Z,5.90
2022-11-15T20:11:03.583Z,6.00
2022-11-15T20:13:30.711Z,6.00
2022-11-15T20:15:58.161Z,5.90
2022-11-15T20:18:25.781Z,5.90
2022-11-15T20:20:52.481Z,5.90
2022-11-15T20:23:19.210Z,6.10
2022-11-15T20:25:46.498Z,6.20
2022-11-15T20:28:26.636Z,6.00
2022-11-15T20:30:57.307Z,6.00
2022-11-15T20:33:24.266Z,6.10
2022-11-15T20:35:51.078Z,6.20
2022-11-15T20:38:17.939Z,6.20
2022-11-15T20:40:45.438Z,6.40
2022-11-15T20:43:13.102Z,6.30
2022-11-15T20:45:40.101Z,6.10
2022-11-15T20:48:06.730Z,5.90
2022-11-15T20:50:42.448Z,5.90
2022-11-15T20:53:10.368Z,5.90
2022-11-15T20:55:41.243Z,6.00
2022-11-15T20:58:09.008Z,6.10
2022-11-15T21:00:36.894Z,6.10
2022-11-15T21:03:06.810Z,6.20
2022-11-15T21:05:34.481Z,6.10
2022-11-15T21:08:01.231Z,6.10
2022-11-15T21:10:47.035Z,6.10
2022-11-15T21:13:13.787Z,6.20
2022-11-15T21:15:40.448Z,6.20
2022-11-15T21:18:07.137Z,6.20
2022-11-15T21:20:33.888Z,6.20
2022-11-15T21:23:00.547Z,6.40
2022-11-15T21:25:27.329Z,6.30
2022-11-15T21:27:54.022Z,6.40
2022-11-15T21:30:20.766Z,6.30
2022-11-15T21:32:47.848Z,6.40
2022-11-15T21:35:14.613Z,6.30
2022-11-15T21:37:41.800Z,6.00
2022-11-15T21:40:08.818Z,5.90
2022-11-15T21:42:35.524Z,5.80
2022-11-15T21:45:02.198Z,5.80
2022-11-15T21:47:28.872Z,5.80
2022-11-15T21:49:55.649Z,5.90
2022-11-15T21:52:22.297Z,6.20
2022-11-15T21:54:49.013Z,6.30
2022-11-15T21:57:15.664Z,6.20
2022-11-15T22:00:02.275Z,6.30
2022-11-15T22:02:31.212Z,6.30
2022-11-15T22:04:57.952Z,6.00
2022-11-15T22:07:24.680Z,5.80
2022-11-15T22:09:51.425Z,5.80
2022-11-15T22:12:18.121Z,5.90
2022-11-15T22:14:44.928Z,6.10
2022-11-15T22:17:11.946Z,5.70
2022-11-15T22:19:52.012Z,5.50
2022-11-15T22:22:19.348Z,5.50
2022-11-15T22:24:45.993Z,5.70
2022-11-15T22:27:12.770Z,5.70
2022-11-15T22:29:39.552Z,5.70
2022-11-15T22:32:06.274Z,5.70
2022-11-15T22:34:33.040Z,5.80
2022-11-15T22:37:19.881Z,5.90
2022-11-15T22:39:46.540Z,5.50
2022-11-15T22:42:13.366Z,5.10
2022-11-15T22:44:40.039Z,5.30
2022-11-15T22:47:06.752Z,5.40
2022-11-15T22:49:33.496Z,5.20
2022-11-15T22:52:00.188Z,5.10
2022-11-15T22:54:27.087Z,5.30
2022-11-15T22:56:53.836Z,5.40
2022-11-15T22:59:20.516Z,5.40
2022-11-15T23:01:47.217Z,5.40
2022-11-15T23:04:13.849Z,5.50
2022-11-15T23:06:40.522Z,5.40
2022-11-15T23:09:08.108Z,5.50
2022-11-15T23:11:53.698Z,5.40
2022-11-15T23:14:20.384Z,5.30
2022-11-15T23:16:47.041Z,5.50
2022-11-15T23:19:13.707Z,5.40
2022-11-15T23:22:03.320Z,5.40
2022-11-15T23:24:30.732Z,5.40
2022-11-15T23:27:01.486Z,5.30
2022-11-15T23:29:29.131Z,5.20
2022-11-15T23:32:15.127Z,5.20
2022-11-15T23:34:44.134Z,5.30
2022-11-15T23:37:12.255Z,5.20
2022-11-15T23:39:39.086Z,5.30
2022-11-15T23:42:08.998Z,5.30
2022-11-15T23:44:35.893Z,5.30
2022-11-15T23:47:02.595Z,5.20
2022-11-15T23:49:29.332Z,5.20
2022-11-15T23:51:55.997Z,5.30
2022-11-15T23:54:22.624Z,5.30
2022-11-15T23:56:49.293Z,5.40
2022-11-15T23:59:15.959Z,5.30
